Time;durP1;ratioP1;P1;durP2;ratioP2;P2;SDS_P1;SDS_P2;PMS_P1;PMS_P2;Temp;Humidity;BMP_temperature;BMP_pressure;BME280_temperature;BME280_humidity;BME280_pressure;Samples;Min_cycle;Max_cycle;Signal;HPM_P1;HPM_P2
2023/04/04 00:01:30;;;;;;;2.73;0.80;;;5.30;52.30;;;;;;5010601;28;20206;-80
2023/04/04 00:03:56;;;;;;;2.03;0.80;;;5.20;52.20;;;;;;5012450;28;20198;-80
2023/04/04 00:06:22;;;;;;;2.60;0.80;;;5.20;52.20;;;;;;5011037;28;20177;-79
2023/04/04 00:08:47;;;;;;;3.10;0.93;;;5.20;52.30;;;;;;5011088;28;20589;-80
2023/04/04 00:11:13;;;;;;;1.60;0.60;;;5.20;52.40;;;;;;5011010;28;20182;-80
2023/04/04 00:13:39;;;;;;;2.33;1.10;;;5.20;52.40;;;;;;5011754;28;20201;-80
2023/04/04 00:16:05;;;;;;;1.80;1.00;;;5.10;52.40;;;;;;5012705;28;20339;-80
2023/04/04 00:18:31;;;;;;;2.42;1.10;;;5.10;52.50;;;;;;5011996;28;20920;-80
2023/04/04 00:20:58;;;;;;;3.40;1.00;;;5.10;52.60;;;;;;4992413;28;20242;-82
2023/04/04 00:23:24;;;;;;;2.50;1.00;;;5.10;52.60;;;;;;4974548;28;20590;-81
2023/04/04 00:25:53;;;;;;;2.47;1.00;;;5.00;52.70;;;;;;4975378;28;20175;-81
2023/04/04 00:28:19;;;;;;;3.30;1.00;;;5.00;53.00;;;;;;4992523;28;20179;-81
2023/04/04 00:30:45;;;;;;;2.63;0.90;;;5.00;53.00;;;;;;4991276;28;20190;-81
2023/04/04 00:33:12;;;;;;;4.72;1.05;;;5.00;53.00;;;;;;4990903;28;20258;-81
2023/04/04 00:35:38;;;;;;;1.73;0.98;;;4.90;53.00;;;;;;4974441;28;20195;-81
2023/04/04 00:38:04;;;;;;;1.63;0.90;;;4.90;53.10;;;;;;4975173;28;20178;-81
2023/04/04 00:40:30;;;;;;;2.30;1.00;;;4.90;53.10;;;;;;4990618;28;20728;-81
2023/04/04 00:42:59;;;;;;;1.70;0.90;;;4.90;53.20;;;;;;4974747;28;20578;-81
2023/04/04 00:45:26;;;;;;;2.15;1.10;;;4.80;53.20;;;;;;4974440;28;20610;-81
2023/04/04 00:47:54;;;;;;;1.73;0.80;;;4.80;53.50;;;;;;4975027;28;20261;-81
2023/04/04 00:50:19;;;;;;;2.30;0.90;;;4.80;53.40;;;;;;4991814;28;20190;-81
2023/04/04 00:52:45;;;;;;;1.87;1.00;;;4.80;53.50;;;;;;5001562;28;20178;-81
2023/04/04 00:55:11;;;;;;;2.23;0.90;;;4.70;53.50;;;;;;5010442;28;20605;-81
2023/04/04 00:57:37;;;;;;;2.80;1.20;;;4.70;53.50;;;;;;5011709;28;20538;-80
2023/04/04 01:00:05;;;;;;;3.03;0.82;;;4.70;54.10;;;;;;5010990;28;20266;-79
2023/04/04 01:02:31;;;;;;;1.80;0.90;;;4.60;53.80;;;;;;4995331;28;20194;-79
2023/04/04 01:05:16;;;;;;;2.55;0.98;;;4.60;54.40;;;;;;4989966;28;20210;-79
2023/04/04 01:07:41;;;;;;;3.90;1.13;;;4.60;53.80;;;;;;4974053;28;20175;-79
2023/04/04 01:10:08;;;;;;;3.85;1.00;;;4.60;54.10;;;;;;4973989;28;20528;-79
2023/04/04 01:12:34;;;;;;;2.92;1.40;;;4.60;54.00;;;;;;4964149;28;20198;-79
2023/04/04 01:15:00;;;;;;;2.35;0.85;;;4.50;54.00;;;;;;4989945;28;20191;-79
2023/04/04 01:17:27;;;;;;;2.08;1.00;;;4.50;54.10;;;;;;4973904;28;20175;-79
2023/04/04 01:19:58;;;;;;;2.25;1.00;;;4.50;54.10;;;;;;4989561;28;20179;-79
2023/04/04 01:22:28;;;;;;;1.98;1.00;;;4.50;54.50;;;;;;4964209;28;20189;-79
2023/04/04 01:24:55;;;;;;;2.13;0.80;;;4.40;55.00;;;;;;4984978;28;20662;-79
2023/04/04 01:27:23;;;;;;;1.95;0.85;;;4.40;54.60;;;;;;4993589;28;20170;-79
2023/04/04 01:29:55;;;;;;;2.30;1.00;;;4.40;54.80;;;;;;4980214;28;20179;-79
2023/04/04 01:32:36;;;;;;;2.27;1.37;;;4.40;54.70;;;;;;4973835;28;20166;-79
2023/04/04 01:35:20;;;;;;;2.33;1.00;;;4.30;54.70;;;;;;4973992;28;20613;-79
2023/04/04 01:38:15;;;;;;;2.70;1.10;;;4.30;54.90;;;;;;4973956;28;20175;-80
2023/04/04 01:40:48;;;;;;;2.00;1.20;;;4.30;54.90;;;;;;4973830;28;20317;-80
2023/04/04 01:43:14;;;;;;;1.98;0.90;;;4.30;54.80;;;;;;4990316;28;20171;-80
2023/04/04 01:45:43;;;;;;;2.63;1.20;;;4.20;54.80;;;;;;4973661;28;20199;-80
2023/04/04 01:48:11;;;;;;;2.05;1.00;;;4.20;54.80;;;;;;4989906;28;20179;-81
2023/04/04 01:50:38;;;;;;;2.35;1.33;;;4.20;55.30;;;;;;4990420;28;20277;-81
2023/04/04 01:53:04;;;;;;;2.53;1.07;;;4.20;55.10;;;;;;5006631;28;20209;-81
2023/04/04 01:55:30;;;;;;;1.70;0.90;;;4.20;55.30;;;;;;4993816;28;20272;-81
2023/04/04 01:57:56;;;;;;;1.90;0.98;;;4.10;55.20;;;;;;4977338;28;20640;-81
2023/04/04 02:00:22;;;;;;;1.90;0.90;;;4.10;55.30;;;;;;4983748;28;20555;-80
2023/04/04 02:02:48;;;;;;;1.90;0.90;;;4.10;55.30;;;;;;5005521;28;20193;-80
2023/04/04 02:05:14;;;;;;;3.30;1.13;;;4.10;55.40;;;;;;5011359;28;20206;-80
2023/04/04 02:07:40;;;;;;;2.47;1.00;;;4.10;55.50;;;;;;4996865;28;20228;-80
2023/04/04 02:10:17;;;;;;;2.10;0.88;;;4.00;55.50;;;;;;4997007;28;20174;-80
2023/04/04 02:12:43;;;;;;;2.10;1.10;;;4.00;55.50;;;;;;4996434;28;20174;-80
2023/04/04 02:15:09;;;;;;;2.47;0.93;;;4.00;55.60;;;;;;4996441;28;20190;-80
2023/04/04 02:17:35;;;;;;;2.47;0.90;;;4.00;55.70;;;;;;5013208;28;20178;-80
2023/04/04 02:20:01;;;;;;;2.10;0.90;;;4.00;55.90;;;;;;4976284;28;20619;-80
2023/04/04 02:22:26;;;;;;;2.40;1.00;;;3.90;55.80;;;;;;4992863;28;20198;-80
2023/04/04 02:24:56;;;;;;;2.20;0.90;;;3.90;56.00;;;;;;4993123;28;20256;-80
2023/04/04 02:27:22;;;;;;;3.15;0.90;;;3.90;56.10;;;;;;4993569;28;20197;-80
2023/04/04 02:29:48;;;;;;;1.35;0.70;;;3.90;56.10;;;;;;4992895;28;20187;-81
2023/04/04 02:32:14;;;;;;;1.77;0.90;;;3.90;56.60;;;;;;4976982;28;20203;-80
2023/04/04 02:34:40;;;;;;;2.08;0.90;;;3.80;56.40;;;;;;4977080;28;20195;-81
2023/04/04 02:37:07;;;;;;;2.13;1.03;;;3.80;56.40;;;;;;4976930;28;20224;-80
2023/04/04 02:39:33;;;;;;;4.22;1.00;;;3.80;56.50;;;;;;4977059;28;20582;-80
2023/04/04 02:41:59;;;;;;;2.35;0.80;;;3.80;56.60;;;;;;4976334;28;20199;-80
2023/04/04 02:44:25;;;;;;;2.47;0.90;;;3.80;56.60;;;;;;4976665;28;20201;-80
2023/04/04 02:46:52;;;;;;;2.55;0.85;;;3.70;56.80;;;;;;4993882;28;20934;-79
2023/04/04 02:49:23;;;;;;;3.10;0.85;;;3.70;56.90;;;;;;4993037;28;20746;-79
2023/04/04 02:51:49;;;;;;;2.07;0.83;;;3.70;57.00;;;;;;4992105;28;20271;-79
2023/04/04 02:54:17;;;;;;;3.53;1.05;;;3.70;57.00;;;;;;4992875;28;21021;-80
2023/04/04 02:56:45;;;;;;;3.70;1.13;;;3.60;57.20;;;;;;4976531;28;20234;-79
2023/04/04 02:59:11;;;;;;;2.60;0.90;;;3.60;57.30;;;;;;4992575;28;20241;-79
2023/04/04 03:01:37;;;;;;;2.57;0.90;;;3.60;57.40;;;;;;4993615;28;20211;-79
2023/04/04 03:04:04;;;;;;;2.50;1.35;;;3.60;58.00;;;;;;4991110;28;20207;-80
2023/04/04 03:06:32;;;;;;;1.67;0.80;;;3.60;57.80;;;;;;5002833;28;20639;-80
2023/04/04 03:08:58;;;;;;;2.03;0.80;;;3.60;57.90;;;;;;4996004;28;20221;-76
2023/04/04 03:11:24;;;;;;;1.83;1.30;;;3.60;57.90;;;;;;5011875;28;20178;-76
2023/04/04 03:13:54;;;;;;;3.00;1.48;;;3.60;58.00;;;;;;4995451;28;20201;-77
2023/04/04 03:16:28;;;;;;;1.60;0.93;;;3.60;58.40;;;;;;4990408;28;20190;-77
2023/04/04 03:18:55;;;;;;;2.05;0.95;;;3.50;58.30;;;;;;4975868;28;20177;-77
2023/04/04 03:21:21;;;;;;;2.63;1.10;;;3.50;58.50;;;;;;4991492;28;20768;-76
2023/04/04 03:23:47;;;;;;;3.13;1.00;;;3.50;58.70;;;;;;4975608;28;20671;-76
2023/04/04 03:26:12;;;;;;;2.20;1.00;;;3.50;58.50;;;;;;4993120;28;20598;-76
2023/04/04 03:28:38;;;;;;;1.80;1.00;;;3.50;58.70;;;;;;4992225;28;20274;-76
2023/04/04 03:31:05;;;;;;;1.70;0.90;;;3.50;58.70;;;;;;4974979;28;20175;-76
2023/04/04 03:33:37;;;;;;;2.25;1.10;;;3.40;58.70;;;;;;4991933;28;20179;-76
2023/04/04 03:36:09;;;;;;;5.13;1.25;;;3.40;58.80;;;;;;4975473;28;20205;-76
2023/04/04 03:38:36;;;;;;;4.18;1.30;;;3.40;59.00;;;;;;4991827;28;20175;-76
2023/04/04 03:41:02;;;;;;;2.10;1.00;;;3.40;59.10;;;;;;4975040;28;20687;-76
2023/04/04 03:43:30;;;;;;;2.05;1.08;;;3.40;59.20;;;;;;4991502;28;20179;-76
2023/04/04 03:46:00;;;;;;;4.07;1.10;;;3.40;59.20;;;;;;4991781;28;20186;-76
2023/04/04 03:48:26;;;;;;;3.95;1.10;;;3.40;59.40;;;;;;4991516;28;20182;-76
2023/04/04 03:50:52;;;;;;;2.20;1.13;;;3.40;59.40;;;;;;4975312;28;20696;-78
2023/04/04 03:53:17;;;;;;;2.50;1.40;;;3.40;59.50;;;;;;4974961;28;20178;-78
2023/04/04 03:55:43;;;;;;;5.40;1.60;;;3.40;59.70;;;;;;4991904;28;20199;-78
2023/04/04 03:58:09;;;;;;;2.08;0.88;;;3.30;60.00;;;;;;4975215;28;20181;-78
2023/04/04 04:00:35;;;;;;;1.60;0.90;;;3.30;60.00;;;;;;4991487;28;20198;-77
2023/04/04 04:03:02;;;;;;;4.10;0.85;;;3.30;60.30;;;;;;4990763;28;20179;-76
2023/04/04 04:05:28;;;;;;;2.53;0.97;;;3.30;60.30;;;;;;4975075;28;20527;-77
2023/04/04 04:07:55;;;;;;;1.55;0.85;;;3.30;60.30;;;;;;4975399;28;20211;-77
2023/04/04 04:10:20;;;;;;;3.75;1.20;;;3.30;60.40;;;;;;4974802;28;20187;-77
2023/04/04 04:12:47;;;;;;;1.60;0.90;;;3.30;60.70;;;;;;4958351;28;20658;-76
2023/04/04 04:15:13;;;;;;;2.87;1.00;;;3.30;60.80;;;;;;4990371;28;20282;-77
2023/04/04 04:17:40;;;;;;;2.50;0.90;;;3.20;60.80;;;;;;4974648;28;20598;-76
2023/04/04 04:20:09;;;;;;;2.65;1.23;;;3.20;61.20;;;;;;4987352;28;20265;-76
2023/04/04 04:22:46;;;;;;;2.20;0.90;;;3.30;61.60;;;;;;4988799;28;20262;-76
2023/04/04 04:25:13;;;;;;;1.83;1.00;;;3.20;61.60;;;;;;4975277;28;20211;-76
2023/04/04 04:27:40;;;;;;;2.25;0.80;;;3.20;61.80;;;;;;4990961;28;20639;-77
2023/04/04 04:30:07;;;;;;;1.77;1.25;;;3.20;62.00;;;;;;4974718;28;20175;-77
2023/04/04 04:32:38;;;;;;;2.65;0.95;;;3.20;62.20;;;;;;4990456;28;20208;-76
2023/04/04 04:35:05;;;;;;;1.93;0.90;;;3.20;62.50;;;;;;4958491;28;20191;-77
2023/04/04 04:37:33;;;;;;;1.90;1.05;;;3.20;62.70;;;;;;4974218;28;20178;-76
2023/04/04 04:40:00;;;;;;;4.93;1.20;;;3.20;62.90;;;;;;4990823;28;20658;-77
2023/04/04 04:42:45;;;;;;;2.45;1.02;;;3.20;63.10;;;;;;4973863;28;20178;-76
2023/04/04 04:45:12;;;;;;;2.53;1.10;;;3.10;63.20;;;;;;4974754;28;20190;-77
2023/04/04 04:47:43;;;;;;;2.50;1.30;;;3.20;63.40;;;;;;4990241;28;20194;-77
2023/04/04 04:50:13;;;;;;;2.00;0.80;;;3.10;63.60;;;;;;4974526;28;20558;-76
2023/04/04 04:52:43;;;;;;;2.35;1.15;;;3.10;63.70;;;;;;4973659;28;20182;-77
2023/04/04 04:55:10;;;;;;;3.22;1.30;;;3.10;63.90;;;;;;4974302;28;20195;-77
2023/04/04 04:57:40;;;;;;;2.78;1.17;;;3.10;64.30;;;;;;4991749;28;20178;-77
2023/04/04 05:00:13;;;;;;;2.17;1.20;;;3.10;64.30;;;;;;4974286;28;20206;-77
2023/04/04 05:02:41;;;;;;;3.38;1.13;;;3.10;64.80;;;;;;4989542;28;20201;-77
2023/04/04 05:05:07;;;;;;;2.35;1.15;;;3.10;65.00;;;;;;4974171;28;20206;-77
2023/04/04 05:07:35;;;;;;;1.92;1.13;;;3.10;65.30;;;;;;4990634;28;20241;-77
2023/04/04 05:10:01;;;;;;;3.80;1.13;;;3.10;65.60;;;;;;4989718;28;20679;-77
2023/04/04 05:12:26;;;;;;;3.67;1.23;;;3.10;65.80;;;;;;4989853;28;20213;-77
2023/04/04 05:14:53;;;;;;;2.85;1.30;;;3.10;66.00;;;;;;4989798;28;20980;-77
2023/04/04 05:17:21;;;;;;;3.07;1.20;;;3.10;66.20;;;;;;4991579;28;20201;-76
2023/04/04 05:19:47;;;;;;;3.92;1.13;;;3.10;66.60;;;;;;4973442;28;20174;-77
2023/04/04 05:22:17;;;;;;;5.32;1.15;;;3.10;67.20;;;;;;4973679;28;20179;-77
2023/04/04 05:24:47;;;;;;;2.95;1.38;;;3.10;67.00;;;;;;4973584;28;20702;-77
2023/04/04 05:27:17;;;;;;;2.22;0.98;;;3.10;66.90;;;;;;4973625;28;20217;-77
2023/04/04 05:29:47;;;;;;;3.13;1.23;;;3.10;67.00;;;;;;4973345;28;20200;-77
2023/04/04 05:32:14;;;;;;;2.38;1.13;;;3.10;67.70;;;;;;4973730;28;20613;-77
2023/04/04 05:34:43;;;;;;;2.15;1.10;;;3.10;67.50;;;;;;4973770;28;20187;-77
2023/04/04 05:37:16;;;;;;;2.60;1.00;;;3.20;68.00;;;;;;4991659;28;20182;-76
2023/04/04 05:39:46;;;;;;;3.55;1.45;;;3.20;67.70;;;;;;4974059;28;20581;-77
2023/04/04 05:42:12;;;;;;;3.20;1.20;;;3.20;68.20;;;;;;4989354;28;20694;-77
2023/04/04 05:44:45;;;;;;;3.30;1.13;;;3.20;68.40;;;;;;4990015;28;20682;-77
2023/04/04 05:47:11;;;;;;;4.70;1.00;;;3.20;68.50;;;;;;4973475;28;20228;-76
2023/04/04 05:49:40;;;;;;;2.00;1.05;;;3.20;68.80;;;;;;4973847;28;20639;-77
2023/04/04 05:52:06;;;;;;;2.65;1.10;;;3.30;70.10;;;;;;4989388;28;20302;-77
2023/04/04 05:54:32;;;;;;;2.88;1.15;;;3.30;69.60;;;;;;4990132;28;20290;-77
2023/04/04 05:57:01;;;;;;;1.77;0.85;;;3.30;69.50;;;;;;4973525;28;20175;-77
2023/04/04 05:59:37;;;;;;;2.47;1.25;;;3.40;69.80;;;;;;4973656;28;20170;-76
2023/04/04 06:02:06;;;;;;;2.88;1.10;;;3.40;70.20;;;;;;4972932;28;20224;-77
2023/04/04 06:04:34;;;;;;;3.45;1.02;;;3.50;70.30;;;;;;4989565;28;20210;-77
2023/04/04 06:07:02;;;;;;;4.50;1.10;;;3.60;70.40;;;;;;4973169;28;20183;-77
2023/04/04 06:09:28;;;;;;;2.00;1.10;;;3.60;70.60;;;;;;4989998;28;20171;-76
2023/04/04 06:11:54;;;;;;;2.90;0.93;;;3.70;70.70;;;;;;4990796;28;20225;-76
2023/04/04 06:14:20;;;;;;;4.65;1.20;;;3.80;70.90;;;;;;4973263;28;20222;-77
2023/04/04 06:16:46;;;;;;;3.13;1.00;;;3.80;70.70;;;;;;4990040;28;20223;-77
2023/04/04 06:19:14;;;;;;;3.63;1.50;;;3.90;71.10;;;;;;4973302;28;20665;-76
2023/04/04 06:21:40;;;;;;;3.45;1.05;;;4.00;71.00;;;;;;4972838;28;20228;-76
2023/04/04 06:24:07;;;;;;;2.40;1.10;;;4.00;71.10;;;;;;4973219;28;20206;-77
2023/04/04 06:26:33;;;;;;;2.60;1.20;;;4.10;71.40;;;;;;4989782;28;20539;-77
2023/04/04 06:29:01;;;;;;;2.90;1.88;;;4.20;71.50;;;;;;4973418;28;20586;-76
2023/04/04 06:31:30;;;;;;;2.33;0.95;;;4.20;71.70;;;;;;4989881;28;20759;-76
2023/04/04 06:34:02;;;;;;;1.92;0.90;;;4.30;71.60;;;;;;4989511;28;20203;-77
2023/04/04 06:36:33;;;;;;;3.30;1.20;;;4.30;71.60;;;;;;4974307;28;20182;-76
2023/04/04 06:39:02;;;;;;;2.58;1.00;;;4.40;71.90;;;;;;4996510;28;20198;-77
2023/04/04 06:41:28;;;;;;;2.75;1.40;;;4.50;72.10;;;;;;4987150;28;20218;-78
2023/04/04 06:43:54;;;;;;;1.90;1.00;;;4.60;72.20;;;;;;4993627;28;20190;-78
2023/04/04 06:46:19;;;;;;;3.77;1.30;;;4.70;72.40;;;;;;5014711;28;20245;-78
2023/04/04 06:48:45;;;;;;;3.58;1.25;;;4.80;72.50;;;;;;4998221;28;20175;-78
2023/04/04 06:51:11;;;;;;;3.57;0.90;;;4.90;72.70;;;;;;4994765;28;20639;-78
2023/04/04 06:53:42;;;;;;;1.67;1.20;;;5.10;73.10;;;;;;4994143;28;20682;-78
2023/04/04 06:56:08;;;;;;;3.30;1.33;;;5.30;73.50;;;;;;4977883;28;20210;-78
2023/04/04 06:58:34;;;;;;;2.73;0.90;;;5.90;75.00;;;;;;4995350;28;20178;-78
2023/04/04 07:01:01;;;;;;;1.95;1.02;;;6.70;78.10;;;;;;4994620;28;20626;-78
2023/04/04 07:03:27;;;;;;;2.83;1.20;;;7.70;81.70;;;;;;4996320;28;20213;-78
2023/04/04 07:05:52;;;;;;;4.70;1.23;;;8.70;82.30;;;;;;4996575;28;20663;-78
2023/04/04 07:08:18;;;;;;;1.90;1.10;;;9.30;76.40;;;;;;4995712;28;20163;-78
2023/04/04 07:10:44;;;;;;;1.93;1.00;;;10.00;76.90;;;;;;4995961;28;20632;-78
2023/04/04 07:13:10;;;;;;;2.97;0.90;;;10.80;74.50;;;;;;4977377;28;20582;-78
2023/04/04 07:15:35;;;;;;;1.83;1.00;;;11.70;76.90;;;;;;4995312;28;20337;-78
2023/04/04 07:18:01;;;;;;;2.80;1.10;;;12.70;78.00;;;;;;4976760;28;20262;-78
2023/04/04 07:20:27;;;;;;;2.73;0.80;;;13.70;77.40;;;;;;4992687;28;20226;-79
2023/04/04 07:22:53;;;;;;;6.30;0.97;;;14.80;77.40;;;;;;4992420;28;20586;-79
2023/04/04 07:25:19;;;;;;;2.87;1.00;;;15.80;76.40;;;;;;4992828;28;20979;-79
2023/04/04 07:27:45;;;;;;;2.00;0.90;;;16.60;74.30;;;;;;4976185;28;20681;-79
2023/04/04 07:30:12;;;;;;;1.70;1.00;;;17.50;73.10;;;;;;4977114;28;21050;-79
2023/04/04 07:32:38;;;;;;;3.93;0.90;;;18.30;70.70;;;;;;4976130;28;20625;-78
2023/04/04 07:35:08;;;;;;;1.80;0.70;;;18.90;69.00;;;;;;4993366;28;20684;-78
2023/04/04 07:37:37;;;;;;;2.40;0.90;;;19.60;66.10;;;;;;4993551;28;20179;-77
2023/04/04 07:40:05;;;;;;;1.90;1.10;;;20.20;64.10;;;;;;4991711;28;20934;-78
2023/04/04 07:42:30;;;;;;;3.43;1.10;;;20.80;60.50;;;;;;4993033;28;21138;-77
2023/04/04 07:44:56;;;;;;;3.97;0.90;;;21.40;60.00;;;;;;4991637;28;20625;-77
2023/04/04 07:47:22;;;;;;;2.40;0.90;;;21.90;58.50;;;;;;4991998;28;20171;-78
2023/04/04 07:49:47;;;;;;;2.43;1.13;;;22.10;56.00;;;;;;4991570;28;20267;-77
2023/04/04 07:52:13;;;;;;;5.67;0.80;;;22.20;53.70;;;;;;4991019;28;20175;-77
2023/04/04 07:54:39;;;;;;;2.73;0.90;;;22.30;54.30;;;;;;4991518;28;20686;-77
2023/04/04 07:57:05;;;;;;;3.10;1.00;;;22.50;51.80;;;;;;4991739;28;20175;-78
2023/04/04 07:59:35;;;;;;;2.03;0.90;;;22.70;52.80;;;;;;4991562;28;20179;-77
2023/04/04 08:02:01;;;;;;;5.03;1.00;;;22.70;45.20;;;;;;4992113;28;20630;-78
2023/04/04 08:04:26;;;;;;;2.30;1.00;;;22.50;47.50;;;;;;4991610;28;21157;-78
2023/04/04 08:06:52;;;;;;;3.33;0.90;;;22.60;47.60;;;;;;4991458;28;20182;-78
2023/04/04 08:09:18;;;;;;;2.10;0.90;;;22.60;47.10;;;;;;4975736;28;20681;-78
2023/04/04 08:11:44;;;;;;;4.20;0.90;;;22.70;46.70;;;;;;4974545;28;20213;-78
2023/04/04 08:14:10;;;;;;;3.80;0.90;;;23.00;47.70;;;;;;4991090;28;20614;-78
2023/04/04 08:16:37;;;;;;;2.23;0.80;;;23.00;46.80;;;;;;4991418;28;20171;-78
2023/04/04 08:19:03;;;;;;;1.67;0.70;;;23.10;46.90;;;;;;4992815;28;20579;-78
2023/04/04 08:21:29;;;;;;;2.30;0.90;;;23.30;47.00;;;;;;4973964;28;21201;-78
2023/04/04 08:23:55;;;;;;;2.03;0.87;;;23.20;45.30;;;;;;4991498;28;21240;-79
2023/04/04 08:26:21;;;;;;;1.93;0.87;;;23.10;45.10;;;;;;4991329;28;20618;-78
2023/04/04 08:28:47;;;;;;;2.73;1.00;;;23.30;45.90;;;;;;4994673;28;20582;-78
2023/04/04 08:31:13;;;;;;;3.40;1.20;;;23.50;42.60;;;;;;5001396;28;20589;-78
2023/04/04 08:33:39;;;;;;;1.70;0.90;;;23.80;44.40;;;;;;4999221;28;20578;-78
2023/04/04 08:36:05;;;;;;;1.57;0.87;;;23.50;40.70;;;;;;4990994;28;20624;-77
2023/04/04 08:38:30;;;;;;;2.23;0.90;;;23.10;41.00;;;;;;4974657;28;20179;-78
2023/04/04 08:40:56;;;;;;;2.53;1.00;;;22.90;41.50;;;;;;4974392;28;20198;-78
2023/04/04 08:43:25;;;;;;;2.37;0.83;;;23.00;39.30;;;;;;4991661;28;20175;-78
2023/04/04 08:45:53;;;;;;;2.23;0.87;;;23.30;41.90;;;;;;4992171;28;20981;-78
2023/04/04 08:48:22;;;;;;;2.57;0.80;;;23.70;42.60;;;;;;4990410;28;21126;-78
2023/04/04 08:50:49;;;;;;;4.30;1.10;;;24.10;42.70;;;;;;4992020;28;20598;-78
2023/04/04 08:53:15;;;;;;;2.20;0.90;;;24.60;41.60;;;;;;4990539;28;20590;-78
2023/04/04 08:55:42;;;;;;;3.60;0.90;;;24.80;41.90;;;;;;5002168;28;20638;-78
2023/04/04 08:58:08;;;;;;;2.70;1.00;;;25.10;42.20;;;;;;4994814;28;20682;-78
2023/04/04 09:00:33;;;;;;;3.23;1.00;;;25.50;41.90;;;;;;4990405;28;20740;-78
2023/04/04 09:03:04;;;;;;;2.90;0.93;;;25.40;38.10;;;;;;4990298;28;20179;-78
2023/04/04 09:05:29;;;;;;;2.10;1.17;;;24.90;36.90;;;;;;4990268;28;20217;-78
2023/04/04 09:07:57;;;;;;;2.40;1.10;;;24.80;38.50;;;;;;4974744;28;20575;-78
2023/04/04 09:10:22;;;;;;;1.73;0.90;;;24.80;38.40;;;;;;4990340;28;20597;-78
2023/04/04 09:12:50;;;;;;;1.80;0.90;;;24.90;38.80;;;;;;4991365;28;20945;-78
2023/04/04 09:15:16;;;;;;;3.07;0.87;;;25.10;38.80;;;;;;4995406;28;20196;-78
2023/04/04 09:17:42;;;;;;;2.10;1.00;;;25.30;38.50;;;;;;4974378;28;20929;-78
2023/04/04 09:20:40;;;;;;;1.87;0.90;;;25.60;38.60;;;;;;4991405;28;20578;-77
2023/04/04 09:23:10;;;;;;;2.33;0.80;;;25.90;36.60;;;;;;4954744;28;20616;-77
2023/04/04 09:25:37;;;;;;;1.80;0.90;;;26.00;38.40;;;;;;4971755;28;20599;-78
2023/04/04 09:28:04;;;;;;;2.73;1.17;;;26.20;38.40;;;;;;4971308;28;20572;-78
2023/04/04 09:30:34;;;;;;;2.80;1.10;;;26.50;38.50;;;;;;4954973;28;20583;-78
2023/04/04 09:33:04;;;;;;;1.90;0.87;;;26.60;36.90;;;;;;4970324;28;20575;-78
2023/04/04 09:35:36;;;;;;;2.70;1.20;;;26.70;36.50;;;;;;4970160;28;20635;-78
2023/04/04 09:38:04;;;;;;;2.20;1.03;;;26.80;36.20;;;;;;4989954;28;20579;-78
2023/04/04 09:40:30;;;;;;;2.20;1.00;;;26.80;35.40;;;;;;4992060;28;20634;-78
2023/04/04 09:43:03;;;;;;;2.97;0.87;;;26.50;35.00;;;;;;4990502;28;20576;-78
2023/04/04 09:45:39;;;;;;;2.33;0.93;;;26.30;34.80;;;;;;4992308;28;20657;-78
2023/04/04 09:48:06;;;;;;;5.00;1.00;;;26.20;34.80;;;;;;4988655;28;20629;-79
2023/04/04 09:50:34;;;;;;;3.73;1.10;;;26.20;35.00;;;;;;4991123;28;20631;-78
2023/04/04 09:53:00;;;;;;;1.77;0.90;;;26.20;33.80;;;;;;4989054;28;20607;-79
2023/04/04 09:55:37;;;;;;;3.20;1.20;;;26.10;34.30;;;;;;4990263;28;20618;-79
2023/04/04 09:58:14;;;;;;;2.53;1.00;;;26.30;34.20;;;;;;4989563;28;20602;-79
2023/04/04 10:00:46;;;;;;;3.30;1.20;;;26.50;34.90;;;;;;4991688;28;20628;-79
2023/04/04 10:03:16;;;;;;;2.73;1.20;;;26.30;31.80;;;;;;5006280;28;20602;-79
2023/04/04 10:05:44;;;;;;;5.73;1.60;;;25.90;31.00;;;;;;4975325;28;20637;-78
2023/04/04 10:08:16;;;;;;;2.77;1.10;;;25.30;30.90;;;;;;4989935;28;20575;-78
2023/04/04 10:10:47;;;;;;;2.00;1.10;;;25.20;31.90;;;;;;4989683;28;20911;-78
2023/04/04 10:13:13;;;;;;;1.97;0.90;;;25.20;32.90;;;;;;4973497;28;20586;-78
2023/04/04 10:15:43;;;;;;;2.03;1.00;;;25.30;33.30;;;;;;4993940;28;20621;-78
2023/04/04 10:18:10;;;;;;;2.90;1.10;;;25.30;32.50;;;;;;4961416;28;20183;-78
2023/04/04 10:20:36;;;;;;;2.17;0.97;;;25.50;33.60;;;;;;4976213;28;20654;-79
2023/04/04 10:23:04;;;;;;;4.03;1.33;;;25.50;31.50;;;;;;4973911;28;20590;-79
2023/04/04 10:25:30;;;;;;;1.90;0.90;;;25.40;32.90;;;;;;4974805;28;20618;-79
2023/04/04 10:27:56;;;;;;;1.90;1.17;;;25.60;33.70;;;;;;4974315;28;20579;-79
2023/04/04 10:30:21;;;;;;;2.73;1.10;;;25.60;32.90;;;;;;4957972;28;20238;-79
2023/04/04 10:33:10;;;;;;;2.83;1.63;;;25.60;32.80;;;;;;4974051;28;20184;-79
2023/04/04 10:35:39;;;;;;;2.30;1.60;;;25.60;31.60;;;;;;4993245;28;20195;-77
2023/04/04 10:38:05;;;;;;;1.77;0.93;;;25.40;32.60;;;;;;4992862;28;20664;-77
2023/04/04 10:40:37;;;;;;;1.90;1.10;;;25.20;32.90;;;;;;4994702;28;20618;-77
2023/04/04 10:43:04;;;;;;;2.20;1.10;;;25.10;32.50;;;;;;4993341;28;20589;-77
2023/04/04 10:45:37;;;;;;;1.90;1.00;;;24.80;32.20;;;;;;4994349;28;20708;-78
2023/04/04 10:48:03;;;;;;;1.63;1.00;;;24.50;31.50;;;;;;4976035;28;20613;-78
2023/04/04 10:50:33;;;;;;;2.30;1.20;;;24.30;31.60;;;;;;4992942;28;20590;-79
2023/04/04 10:53:00;;;;;;;3.43;1.13;;;24.00;31.50;;;;;;4976091;28;20578;-78
2023/04/04 10:55:28;;;;;;;1.77;1.00;;;23.80;31.80;;;;;;4992619;28;20624;-78
2023/04/04 10:57:55;;;;;;;2.33;1.10;;;23.70;32.00;;;;;;4992396;28;20621;-78
2023/04/04 11:00:23;;;;;;;2.07;0.97;;;23.60;32.40;;;;;;4992866;28;20630;-78
2023/04/04 11:02:51;;;;;;;3.00;1.10;;;23.50;31.80;;;;;;4993459;28;20585;-78
2023/04/04 11:05:21;;;;;;;2.50;1.30;;;23.40;31.20;;;;;;4975925;28;20632;-79
2023/04/04 11:07:56;;;;;;;2.00;1.30;;;23.10;31.30;;;;;;4992817;28;20637;-80
2023/04/04 11:10:28;;;;;;;2.23;1.10;;;23.00;31.20;;;;;;4992446;28;20585;-79
2023/04/04 11:12:57;;;;;;;1.80;1.00;;;22.80;31.10;;;;;;4992103;28;20578;-78
2023/04/04 11:15:25;;;;;;;2.60;1.43;;;22.40;29.80;;;;;;4975803;28;20618;-78
2023/04/04 11:17:58;;;;;;;2.20;1.20;;;21.80;29.60;;;;;;4992419;28;20622;-79
2023/04/04 11:20:35;;;;;;;2.20;1.10;;;21.20;28.70;;;;;;4991753;28;20669;-78
2023/04/04 11:23:05;;;;;;;2.40;1.10;;;20.70;30.00;;;;;;4993344;28;20671;-78
2023/04/04 11:25:34;;;;;;;3.27;2.00;;;20.50;30.30;;;;;;4990242;28;20717;-77
2023/04/04 11:28:24;;;;;;;1.53;0.90;;;20.50;31.10;;;;;;5008613;28;20578;-78
2023/04/04 11:31:13;;;;;;;2.00;1.03;;;20.50;31.10;;;;;;4991543;28;20585;-78
2023/04/04 11:34:08;;;;;;;2.00;1.10;;;20.60;30.30;;;;;;5008361;28;20577;-78
2023/04/04 11:39:27;;;;;;;3.03;1.00;;;20.70;31.40;;;;;;5008489;28;20577;-77
2023/04/04 11:41:56;;;;;;;1.60;0.83;;;20.70;30.80;;;;;;4992568;28;20983;-78
2023/04/04 11:44:28;;;;;;;2.10;1.23;;;20.70;31.50;;;;;;4992141;28;20619;-78
2023/04/04 11:47:08;;;;;;;2.20;1.13;;;20.70;31.40;;;;;;4976428;28;20969;-78
2023/04/04 11:49:45;;;;;;;2.23;1.17;;;20.70;31.00;;;;;;4995349;28;20600;-78
2023/04/04 11:52:22;;;;;;;2.37;1.00;;;20.40;30.10;;;;;;4978048;28;20574;-78
2023/04/04 11:54:48;;;;;;;2.37;1.00;;;20.20;30.80;;;;;;4991770;28;20984;-78
2023/04/04 11:57:18;;;;;;;1.87;1.10;;;20.20;31.40;;;;;;4991760;28;20558;-78
2023/04/04 11:59:47;;;;;;;6.30;1.40;;;20.20;31.20;;;;;;4991885;28;20674;-79
2023/04/04 12:02:18;;;;;;;3.47;1.50;;;20.20;31.10;;;;;;4992891;28;20637;-78
2023/04/04 12:04:46;;;;;;;1.80;1.23;;;20.10;30.80;;;;;;4992410;28;20614;-78
2023/04/04 12:07:14;;;;;;;2.33;1.00;;;20.00;31.10;;;;;;4991881;28;20578;-79
2023/04/04 12:09:41;;;;;;;1.93;1.00;;;20.00;31.10;;;;;;4992608;28;20639;-79
2023/04/04 12:12:11;;;;;;;2.33;1.07;;;19.90;31.10;;;;;;4992652;28;20601;-79
2023/04/04 12:14:38;;;;;;;4.97;1.43;;;19.90;31.30;;;;;;4993875;28;20644;-79
2023/04/04 12:17:05;;;;;;;2.07;1.10;;;19.70;31.00;;;;;;5002995;28;20589;-79
2023/04/04 12:19:36;;;;;;;3.00;1.20;;;19.60;31.30;;;;;;5010956;28;20577;-79
2023/04/04 12:22:02;;;;;;;2.33;1.07;;;19.50;31.10;;;;;;4986263;28;20665;-79
2023/04/04 12:24:28;;;;;;;2.93;1.10;;;19.40;31.60;;;;;;4991325;28;20689;-79
2023/04/04 12:26:54;;;;;;;2.67;1.00;;;19.30;31.60;;;;;;4992923;28;20242;-78
2023/04/04 12:29:22;;;;;;;2.00;1.10;;;19.20;31.80;;;;;;4991647;28;20643;-79
2023/04/04 12:31:49;;;;;;;2.47;1.10;;;19.20;31.70;;;;;;4974880;28;20590;-78
2023/04/04 12:34:28;;;;;;;2.33;1.00;;;19.10;31.20;;;;;;4994472;28;20610;-78
2023/04/04 12:36:55;;;;;;;4.53;1.40;;;19.00;31.40;;;;;;4974867;28;20597;-77
2023/04/04 12:39:24;;;;;;;2.20;1.00;;;18.70;30.60;;;;;;4992485;28;20616;-77
2023/04/04 12:41:51;;;;;;;2.10;0.83;;;18.50;30.00;;;;;;4980172;28;20638;-77
2023/04/04 12:44:34;;;;;;;2.10;1.03;;;18.40;30.90;;;;;;5002524;28;20630;-78
2023/04/04 12:47:03;;;;;;;2.53;1.60;;;18.20;29.80;;;;;;5006871;28;20571;-77
2023/04/04 12:49:38;;;;;;;3.20;1.20;;;18.00;30.40;;;;;;5007804;28;20602;-77
2023/04/04 12:52:06;;;;;;;1.90;1.00;;;17.90;30.00;;;;;;5007571;28;20950;-77
2023/04/04 12:54:38;;;;;;;2.20;1.00;;;17.70;30.50;;;;;;4990813;28;20614;-78
2023/04/04 12:57:06;;;;;;;3.23;0.90;;;17.60;30.30;;;;;;5028802;23;20670;-76
2023/04/04 12:59:36;;;;;;;2.53;1.00;;;17.50;30.60;;;;;;5049379;28;21207;-78
2023/04/04 13:02:06;;;;;;;4.80;1.20;;;17.30;30.50;;;;;;5044298;28;20666;-77